sensor_id;sensor_type;location;lat;lon;timestamp;temperature;humidity
19342;DHT22;9807;48.258;12.690;2024-01-27T00:01:32;3.40;99.90
19342;DHT22;9807;48.258;12.690;2024-01-27T00:03:59;3.80;99.90
19342;DHT22;9807;48.258;12.690;2024-01-27T00:06:25;4.30;99.90
19342;DHT22;9807;48.258;12.690;2024-01-27T00:08:51;5.10;99.90
19342;DHT22;9807;48.258;12.690;2024-01-27T00:11:16;5.30;99.90
19342;DHT22;9807;48.258;12.690;2024-01-27T00:13:42;5.60;99.90
19342;DHT22;9807;48.258;12.690;2024-01-27T00:16:09;5.80;99.90
19342;DHT22;9807;48.258;12.690;2024-01-27T00:18:38;6.00;99.90
19342;DHT22;9807;48.258;12.690;2024-01-27T00:21:06;6.10;99.90
19342;DHT22;9807;48.258;12.690;2024-01-27T00:23:32;6.20;99.90
19342;DHT22;9807;48.258;12.690;2024-01-27T00:25:59;6.30;99.90
19342;DHT22;9807;48.258;12.690;2024-01-27T00:28:25;6.40;99.90
19342;DHT22;9807;48.258;12.690;2024-01-27T00:30:50;6.20;99.90
19342;DHT22;9807;48.258;12.690;2024-01-27T00:33:16;5.90;99.90
19342;DHT22;9807;48.258;12.690;2024-01-27T00:35:42;5.80;99.90
19342;DHT22;9807;48.258;12.690;2024-01-27T00:38:11;5.70;99.90
19342;DHT22;9807;48.258;12.690;2024-01-27T00:40:37;5.40;99.90
19342;DHT22;9807;48.258;12.690;2024-01-27T00:43:03;5.10;99.90
19342;DHT22;9807;48.258;12.690;2024-01-27T00:45:28;4.70;99.90
19342;DHT22;9807;48.258;12.690;2024-01-27T00:47:56;4.40;99.90
19342;DHT22;9807;48.258;12.690;2024-01-27T00:50:21;4.10;99.90
19342;DHT22;9807;48.258;12.690;2024-01-27T00:52:47;3.70;99.90
19342;DHT22;9807;48.258;12.690;2024-01-27T00:55:13;3.60;99.90
19342;DHT22;9807;48.258;12.690;2024-01-27T00:57:39;3.90;99.90
19342;DHT22;9807;48.258;12.690;2024-01-27T01:00:08;4.20;99.90
19342;DHT22;9807;48.258;12.690;2024-01-27T01:02:34;4.70;99.90
19342;DHT22;9807;48.258;12.690;2024-01-27T01:05:01;4.50;99.90
19342;DHT22;9807;48.258;12.690;2024-01-27T01:07:26;4.00;99.90
19342;DHT22;9807;48.258;12.690;2024-01-27T01:09:53;3.70;99.90
19342;DHT22;9807;48.258;12.690;2024-01-27T01:12:18;3.80;99.90
19342;DHT22;9807;48.258;12.690;2024-01-27T01:14:44;4.30;99.90
19342;DHT22;9807;48.258;12.690;2024-01-27T01:17:10;4.70;99.90
19342;DHT22;9807;48.258;12.690;2024-01-27T01:19:40;5.10;99.90
19342;DHT22;9807;48.258;12.690;2024-01-27T01:22:06;5.40;99.90
19342;DHT22;9807;48.258;12.690;2024-01-27T01:24:32;5.30;99.90
19342;DHT22;9807;48.258;12.690;2024-01-27T01:26:59;5.10;99.90
19342;DHT22;9807;48.258;12.690;2024-01-27T01:29:25;4.50;99.90
19342;DHT22;9807;48.258;12.690;2024-01-27T01:31:51;4.20;99.90
19342;DHT22;9807;48.258;12.690;2024-01-27T01:34:17;3.70;99.90
19342;DHT22;9807;48.258;12.690;2024-01-27T01:36:43;3.20;99.90
19342;DHT22;9807;48.258;12.690;2024-01-27T01:39:10;2.70;99.90
19342;DHT22;9807;48.258;12.690;2024-01-27T01:41:36;2.50;99.90
19342;DHT22;9807;48.258;12.690;2024-01-27T01:44:01;2.60;99.90
19342;DHT22;9807;48.258;12.690;2024-01-27T01:46:27;2.70;99.90
19342;DHT22;9807;48.258;12.690;2024-01-27T01:48:53;2.50;99.90
19342;DHT22;9807;48.258;12.690;2024-01-27T01:51:19;2.50;99.90
19342;DHT22;9807;48.258;12.690;2024-01-27T01:53:49;2.80;99.90
19342;DHT22;9807;48.258;12.690;2024-01-27T01:56:16;3.40;99.90
19342;DHT22;9807;48.258;12.690;2024-01-27T01:58:42;3.90;99.90
19342;DHT22;9807;48.258;12.690;2024-01-27T02:01:08;4.50;99.90
19342;DHT22;9807;48.258;12.690;2024-01-27T02:03:34;5.00;99.90
19342;DHT22;9807;48.258;12.690;2024-01-27T02:06:00;5.40;99.90
19342;DHT22;9807;48.258;12.690;2024-01-27T02:08:25;5.70;99.90
19342;DHT22;9807;48.258;12.690;2024-01-27T02:10:51;6.00;99.90
19342;DHT22;9807;48.258;12.690;2024-01-27T02:13:22;6.10;99.90
19342;DHT22;9807;48.258;12.690;2024-01-27T02:15:49;6.20;99.90
19342;DHT22;9807;48.258;12.690;2024-01-27T02:18:16;6.30;99.90
19342;DHT22;9807;48.258;12.690;2024-01-27T02:20:42;5.80;99.90
19342;DHT22;9807;48.258;12.690;2024-01-27T02:23:08;4.80;99.90
19342;DHT22;9807;48.258;12.690;2024-01-27T02:25:34;3.70;99.90
19342;DHT22;9807;48.258;12.690;2024-01-27T02:28:01;3.10;99.90
19342;DHT22;9807;48.258;12.690;2024-01-27T02:30:28;2.80;99.90
19342;DHT22;9807;48.258;12.690;2024-01-27T02:32:55;2.80;99.90
19342;DHT22;9807;48.258;12.690;2024-01-27T02:35:21;2.70;99.90
19342;DHT22;9807;48.258;12.690;2024-01-27T02:37:46;2.30;99.90
19342;DHT22;9807;48.258;12.690;2024-01-27T02:40:12;1.90;99.90
19342;DHT22;9807;48.258;12.690;2024-01-27T02:42:39;1.60;99.90
19342;DHT22;9807;48.258;12.690;2024-01-27T02:45:08;1.50;99.90
19342;DHT22;9807;48.258;12.690;2024-01-27T02:47:33;1.40;99.90
19342;DHT22;9807;48.258;12.690;2024-01-27T02:49:59;1.30;99.90
19342;DHT22;9807;48.258;12.690;2024-01-27T02:52:25;1.20;99.90
19342;DHT22;9807;48.258;12.690;2024-01-27T02:54:51;1.30;99.90
19342;DHT22;9807;48.258;12.690;2024-01-27T02:57:17;1.40;99.90
19342;DHT22;9807;48.258;12.690;2024-01-27T02:59:46;1.60;99.90
19342;DHT22;9807;48.258;12.690;2024-01-27T03:02:11;1.90;99.90
19342;DHT22;9807;48.258;12.690;2024-01-27T03:04:37;2.10;99.90
19342;DHT22;9807;48.258;12.690;2024-01-27T03:07:03;2.20;99.90
19342;DHT22;9807;48.258;12.690;2024-01-27T03:09:28;2.30;99.90
19342;DHT22;9807;48.258;12.690;2024-01-27T03:11:54;2.70;99.90
19342;DHT22;9807;48.258;12.690;2024-01-27T03:14:20;2.90;99.90
19342;DHT22;9807;48.258;12.690;2024-01-27T03:16:45;2.70;99.90
19342;DHT22;9807;48.258;12.690;2024-01-27T03:19:11;2.50;99.90
19342;DHT22;9807;48.258;12.690;2024-01-27T03:21:37;2.10;99.90
19342;DHT22;9807;48.258;12.690;2024-01-27T03:24:02;1.80;99.90
19342;DHT22;9807;48.258;12.690;2024-01-27T03:26:28;1.80;99.90
19342;DHT22;9807;48.258;12.690;2024-01-27T03:28:54;2.10;99.90
19342;DHT22;9807;48.258;12.690;2024-01-27T03:31:19;2.20;99.90
19342;DHT22;9807;48.258;12.690;2024-01-27T03:33:45;2.20;99.90
19342;DHT22;9807;48.258;12.690;2024-01-27T03:36:11;2.10;99.90
19342;DHT22;9807;48.258;12.690;2024-01-27T03:38:38;2.10;99.90
19342;DHT22;9807;48.258;12.690;2024-01-27T03:41:04;2.20;99.90
19342;DHT22;9807;48.258;12.690;2024-01-27T03:43:30;2.60;99.90
19342;DHT22;9807;48.258;12.690;2024-01-27T03:45:59;3.00;99.90
19342;DHT22;9807;48.258;12.690;2024-01-27T03:48:25;3.60;99.90
19342;DHT22;9807;48.258;12.690;2024-01-27T03:50:51;4.20;99.90
19342;DHT22;9807;48.258;12.690;2024-01-27T03:53:17;4.60;99.90
19342;DHT22;9807;48.258;12.690;2024-01-27T03:55:42;4.90;99.90
19342;DHT22;9807;48.258;12.690;2024-01-27T03:58:08;5.10;99.90
19342;DHT22;9807;48.258;12.690;2024-01-27T04:00:34;4.80;99.90
19342;DHT22;9807;48.258;12.690;2024-01-27T04:03:00;4.40;99.90
19342;DHT22;9807;48.258;12.690;2024-01-27T04:05:26;4.10;99.90
19342;DHT22;9807;48.258;12.690;2024-01-27T04:07:54;4.10;99.90
19342;DHT22;9807;48.258;12.690;2024-01-27T04:10:21;4.40;99.90
19342;DHT22;9807;48.258;12.690;2024-01-27T04:12:47;4.80;99.90
19342;DHT22;9807;48.258;12.690;2024-01-27T04:15:12;5.10;99.90
19342;DHT22;9807;48.258;12.690;2024-01-27T04:17:39;5.40;99.90
19342;DHT22;9807;48.258;12.690;2024-01-27T04:20:06;5.60;99.90
19342;DHT22;9807;48.258;12.690;2024-01-27T04:22:33;5.80;99.90
19342;DHT22;9807;48.258;12.690;2024-01-27T04:24:59;5.90;99.90
19342;DHT22;9807;48.258;12.690;2024-01-27T04:27:27;6.00;99.90
19342;DHT22;9807;48.258;12.690;2024-01-27T04:29:53;6.10;99.90
19342;DHT22;9807;48.258;12.690;2024-01-27T04:32:18;6.20;99.90
19342;DHT22;9807;48.258;12.690;2024-01-27T04:34:44;5.90;99.90
19342;DHT22;9807;48.258;12.690;2024-01-27T04:37:09;5.50;99.90
19342;DHT22;9807;48.258;12.690;2024-01-27T04:39:35;5.40;99.90
19342;DHT22;9807;48.258;12.690;2024-01-27T04:42:04;5.10;99.90
19342;DHT22;9807;48.258;12.690;2024-01-27T04:44:32;5.20;99.90
19342;DHT22;9807;48.258;12.690;2024-01-27T04:47:01;5.50;99.90
19342;DHT22;9807;48.258;12.690;2024-01-27T04:49:26;5.60;99.90
19342;DHT22;9807;48.258;12.690;2024-01-27T04:51:52;5.80;99.90
19342;DHT22;9807;48.258;12.690;2024-01-27T04:54:20;5.90;99.90
19342;DHT22;9807;48.258;12.690;2024-01-27T04:56:46;5.80;99.90
19342;DHT22;9807;48.258;12.690;2024-01-27T04:59:11;5.80;99.90
19342;DHT22;9807;48.258;12.690;2024-01-27T05:01:37;5.80;99.90
19342;DHT22;9807;48.258;12.690;2024-01-27T05:04:03;6.00;99.90
19342;DHT22;9807;48.258;12.690;2024-01-27T05:06:30;6.10;99.90
19342;DHT22;9807;48.258;12.690;2024-01-27T05:08:55;6.20;99.90
19342;DHT22;9807;48.258;12.690;2024-01-27T05:11:32;6.10;99.90
19342;DHT22;9807;48.258;12.690;2024-01-27T05:14:01;6.00;99.90
19342;DHT22;9807;48.258;12.690;2024-01-27T05:16:28;5.90;99.90
19342;DHT22;9807;48.258;12.690;2024-01-27T05:18:53;5.20;99.90
19342;DHT22;9807;48.258;12.690;2024-01-27T05:21:19;4.50;99.90
19342;DHT22;9807;48.258;12.690;2024-01-27T05:23:45;3.40;99.90
19342;DHT22;9807;48.258;12.690;2024-01-27T05:26:10;2.50;99.90
19342;DHT22;9807;48.258;12.690;2024-01-27T05:28:39;1.80;99.90
19342;DHT22;9807;48.258;12.690;2024-01-27T05:31:08;1.30;99.90
19342;DHT22;9807;48.258;12.690;2024-01-27T05:33:38;0.90;99.90
19342;DHT22;9807;48.258;12.690;2024-01-27T05:36:05;0.70;99.90
19342;DHT22;9807;48.258;12.690;2024-01-27T05:38:31;0.50;99.90
19342;DHT22;9807;48.258;12.690;2024-01-27T05:41:00;0.40;99.90
19342;DHT22;9807;48.258;12.690;2024-01-27T05:43:26;0.40;99.90
19342;DHT22;9807;48.258;12.690;2024-01-27T05:45:51;0.40;99.90
19342;DHT22;9807;48.258;12.690;2024-01-27T05:48:17;0.30;99.90
19342;DHT22;9807;48.258;12.690;2024-01-27T05:50:43;0.20;99.90
19342;DHT22;9807;48.258;12.690;2024-01-27T05:53:09;0.20;99.90
19342;DHT22;9807;48.258;12.690;2024-01-27T05:55:35;0.30;99.90
19342;DHT22;9807;48.258;12.690;2024-01-27T05:58:00;0.40;99.90
19342;DHT22;9807;48.258;12.690;2024-01-27T06:00:27;0.40;99.90
19342;DHT22;9807;48.258;12.690;2024-01-27T06:02:52;0.50;99.90
19342;DHT22;9807;48.258;12.690;2024-01-27T06:05:18;0.50;99.90
19342;DHT22;9807;48.258;12.690;2024-01-27T06:07:44;0.60;99.90
19342;DHT22;9807;48.258;12.690;2024-01-27T06:10:11;0.60;99.90
19342;DHT22;9807;48.258;12.690;2024-01-27T06:12:38;0.50;99.90
19342;DHT22;9807;48.258;12.690;2024-01-27T06:18:07;0.70;99.90
19342;DHT22;9807;48.258;12.690;2024-01-27T06:20:33;0.80;99.90
19342;DHT22;9807;48.258;12.690;2024-01-27T06:22:59;1.00;99.90
19342;DHT22;9807;48.258;12.690;2024-01-27T06:25:24;1.40;99.90
19342;DHT22;9807;48.258;12.690;2024-01-27T06:27:50;1.90;99.90
19342;DHT22;9807;48.258;12.690;2024-01-27T06:30:16;2.30;99.90
19342;DHT22;9807;48.258;12.690;2024-01-27T06:32:42;2.80;99.90
19342;DHT22;9807;48.258;12.690;2024-01-27T06:35:08;3.30;99.90
19342;DHT22;9807;48.258;12.690;2024-01-27T06:37:35;3.70;99.90
19342;DHT22;9807;48.258;12.690;2024-01-27T06:40:01;4.10;99.90
19342;DHT22;9807;48.258;12.690;2024-01-27T06:42:27;4.40;99.90
19342;DHT22;9807;48.258;12.690;2024-01-27T06:44:53;4.60;99.90
19342;DHT22;9807;48.258;12.690;2024-01-27T06:47:18;4.80;99.90
19342;DHT22;9807;48.258;12.690;2024-01-27T06:49:44;4.90;99.90
19342;DHT22;9807;48.258;12.690;2024-01-27T06:52:10;5.00;99.90
19342;DHT22;9807;48.258;12.690;2024-01-27T06:54:37;5.20;99.90
19342;DHT22;9807;48.258;12.690;2024-01-27T06:57:06;5.10;99.90
19342;DHT22;9807;48.258;12.690;2024-01-27T06:59:42;5.00;99.90
19342;DHT22;9807;48.258;12.690;2024-01-27T07:02:08;4.90;99.90
19342;DHT22;9807;48.258;12.690;2024-01-27T07:04:39;4.80;99.90
19342;DHT22;9807;48.258;12.690;2024-01-27T07:07:05;4.30;99.90
19342;DHT22;9807;48.258;12.690;2024-01-27T07:09:30;3.60;99.90
19342;DHT22;9807;48.258;12.690;2024-01-27T07:11:56;2.70;99.90
19342;DHT22;9807;48.258;12.690;2024-01-27T07:14:24;2.10;99.90
19342;DHT22;9807;48.258;12.690;2024-01-27T07:16:50;1.50;99.90
19342;DHT22;9807;48.258;12.690;2024-01-27T07:19:16;1.30;99.90
19342;DHT22;9807;48.258;12.690;2024-01-27T07:21:41;1.20;99.90
19342;DHT22;9807;48.258;12.690;2024-01-27T07:24:07;1.10;99.90
19342;DHT22;9807;48.258;12.690;2024-01-27T07:26:33;1.10;99.90
19342;DHT22;9807;48.258;12.690;2024-01-27T07:29:01;1.30;99.90
19342;DHT22;9807;48.258;12.690;2024-01-27T07:31:27;1.40;99.90
19342;DHT22;9807;48.258;12.690;2024-01-27T07:33:53;1.50;99.90
19342;DHT22;9807;48.258;12.690;2024-01-27T07:36:19;2.00;99.90
19342;DHT22;9807;48.258;12.690;2024-01-27T07:38:44;2.50;99.90
19342;DHT22;9807;48.258;12.690;2024-01-27T07:41:10;2.80;99.90
19342;DHT22;9807;48.258;12.690;2024-01-27T07:43:35;2.50;99.90
19342;DHT22;9807;48.258;12.690;2024-01-27T07:46:01;2.20;99.90
19342;DHT22;9807;48.258;12.690;2024-01-27T07:48:27;2.00;99.90
19342;DHT22;9807;48.258;12.690;2024-01-27T07:50:52;1.70;99.90
19342;DHT22;9807;48.258;12.690;2024-01-27T07:53:18;1.40;99.90
19342;DHT22;9807;48.258;12.690;2024-01-27T07:55:44;1.20;99.90
19342;DHT22;9807;48.258;12.690;2024-01-27T07:58:10;1.10;99.90
19342;DHT22;9807;48.258;12.690;2024-01-27T08:00:35;0.90;99.90
19342;DHT22;9807;48.258;12.690;2024-01-27T08:03:01;0.90;99.90
19342;DHT22;9807;48.258;12.690;2024-01-27T08:05:26;0.90;99.90
19342;DHT22;9807;48.258;12.690;2024-01-27T08:07:53;1.00;99.90
19342;DHT22;9807;48.258;12.690;2024-01-27T08:10:18;1.40;99.90
19342;DHT22;9807;48.258;12.690;2024-01-27T08:12:44;1.70;99.90
19342;DHT22;9807;48.258;12.690;2024-01-27T08:15:09;2.20;99.90
19342;DHT22;9807;48.258;12.690;2024-01-27T08:17:35;2.40;99.90
19342;DHT22;9807;48.258;12.690;2024-01-27T08:20:01;2.60;99.90
19342;DHT22;9807;48.258;12.690;2024-01-27T08:22:27;2.60;99.90
19342;DHT22;9807;48.258;12.690;2024-01-27T08:24:53;2.50;99.90
19342;DHT22;9807;48.258;12.690;2024-01-27T08:27:19;2.30;99.90
19342;DHT22;9807;48.258;12.690;2024-01-27T08:29:45;2.20;99.90
19342;DHT22;9807;48.258;12.690;2024-01-27T08:32:10;2.10;99.90
19342;DHT22;9807;48.258;12.690;2024-01-27T08:34:36;2.10;99.90
19342;DHT22;9807;48.258;12.690;2024-01-27T08:37:02;2.00;99.90
19342;DHT22;9807;48.258;12.690;2024-01-27T08:39:28;1.90;99.90
19342;DHT22;9807;48.258;12.690;2024-01-27T08:41:54;1.90;99.90
19342;DHT22;9807;48.258;12.690;2024-01-27T08:44:19;2.00;99.90
19342;DHT22;9807;48.258;12.690;2024-01-27T08:46:45;2.10;99.90
19342;DHT22;9807;48.258;12.690;2024-01-27T08:49:11;2.10;99.90
19342;DHT22;9807;48.258;12.690;2024-01-27T08:51:37;2.10;99.90
19342;DHT22;9807;48.258;12.690;2024-01-27T08:54:02;2.10;99.90
19342;DHT22;9807;48.258;12.690;2024-01-27T08:56:28;2.10;99.90
19342;DHT22;9807;48.258;12.690;2024-01-27T08:58:54;2.10;99.90
19342;DHT22;9807;48.258;12.690;2024-01-27T09:01:19;2.20;99.90
19342;DHT22;9807;48.258;12.690;2024-01-27T09:03:45;2.20;99.90
19342;DHT22;9807;48.258;12.690;2024-01-27T09:06:11;2.30;99.90
19342;DHT22;9807;48.258;12.690;2024-01-27T09:08:37;2.40;99.90
19342;DHT22;9807;48.258;12.690;2024-01-27T09:11:03;2.40;99.90
19342;DHT22;9807;48.258;12.690;2024-01-27T09:13:29;2.60;99.90
19342;DHT22;9807;48.258;12.690;2024-01-27T09:15:56;2.70;99.90
19342;DHT22;9807;48.258;12.690;2024-01-27T09:18:22;2.80;99.90
19342;DHT22;9807;48.258;12.690;2024-01-27T09:20:48;2.80;99.90
19342;DHT22;9807;48.258;12.690;2024-01-27T09:23:14;2.80;99.90
19342;DHT22;9807;48.258;12.690;2024-01-27T09:25:40;2.80;99.90
19342;DHT22;9807;48.258;12.690;2024-01-27T09:28:05;2.80;99.90
19342;DHT22;9807;48.258;12.690;2024-01-27T09:30:31;3.00;99.90
19342;DHT22;9807;48.258;12.690;2024-01-27T09:32:57;3.00;99.90
19342;DHT22;9807;48.258;12.690;2024-01-27T09:35:22;3.10;99.90
19342;DHT22;9807;48.258;12.690;2024-01-27T09:37:48;3.10;99.90
19342;DHT22;9807;48.258;12.690;2024-01-27T09:40:14;3.20;99.90
19342;DHT22;9807;48.258;12.690;2024-01-27T09:42:50;3.30;99.90
19342;DHT22;9807;48.258;12.690;2024-01-27T09:45:16;3.40;99.90
19342;DHT22;9807;48.258;12.690;2024-01-27T09:47:42;3.40;99.90
19342;DHT22;9807;48.258;12.690;2024-01-27T09:50:10;3.50;99.90
19342;DHT22;9807;48.258;12.690;2024-01-27T09:52:36;3.70;99.90
19342;DHT22;9807;48.258;12.690;2024-01-27T09:55:02;3.70;99.90
19342;DHT22;9807;48.258;12.690;2024-01-27T09:57:28;3.70;99.90
19342;DHT22;9807;48.258;12.690;2024-01-27T09:59:56;3.80;99.90
19342;DHT22;9807;48.258;12.690;2024-01-27T10:02:24;4.10;99.90
19342;DHT22;9807;48.258;12.690;2024-01-27T10:04:50;4.30;99.90
19342;DHT22;9807;48.258;12.690;2024-01-27T10:07:16;4.30;99.90
19342;DHT22;9807;48.258;12.690;2024-01-27T10:09:42;4.40;99.90
19342;DHT22;9807;48.258;12.690;2024-01-27T10:12:10;4.40;99.90
19342;DHT22;9807;48.258;12.690;2024-01-27T10:14:41;4.60;99.90
19342;DHT22;9807;48.258;12.690;2024-01-27T10:17:11;4.60;99.90
19342;DHT22;9807;48.258;12.690;2024-01-27T10:19:37;4.40;99.90
19342;DHT22;9807;48.258;12.690;2024-01-27T10:22:03;4.50;99.90
19342;DHT22;9807;48.258;12.690;2024-01-27T10:24:31;4.60;99.90
19342;DHT22;9807;48.258;12.690;2024-01-27T10:27:01;4.70;99.90
19342;DHT22;9807;48.258;12.690;2024-01-27T10:29:27;4.70;99.90
19342;DHT22;9807;48.258;12.690;2024-01-27T10:31:53;4.60;99.90
19342;DHT22;9807;48.258;12.690;2024-01-27T10:34:21;4.60;99.90
19342;DHT22;9807;48.258;12.690;2024-01-27T10:36:47;4.60;99.90
19342;DHT22;9807;48.258;12.690;2024-01-27T10:39:18;4.70;99.90
19342;DHT22;9807;48.258;12.690;2024-01-27T10:41:46;4.80;99.90
19342;DHT22;9807;48.258;12.690;2024-01-27T10:44:15;5.00;99.90
19342;DHT22;9807;48.258;12.690;2024-01-27T10:46:44;4.90;99.90
19342;DHT22;9807;48.258;12.690;2024-01-27T10:49:16;4.80;99.90
19342;DHT22;9807;48.258;12.690;2024-01-27T10:52:03;4.70;99.90
19342;DHT22;9807;48.258;12.690;2024-01-27T10:54:32;4.70;99.90
19342;DHT22;9807;48.258;12.690;2024-01-27T10:56:59;4.70;99.90
19342;DHT22;9807;48.258;12.690;2024-01-27T10:59:27;4.70;99.90
19342;DHT22;9807;48.258;12.690;2024-01-27T11:01:56;4.70;99.90
19342;DHT22;9807;48.258;12.690;2024-01-27T11:04:22;4.70;99.90
19342;DHT22;9807;48.258;12.690;2024-01-27T11:06:48;4.70;99.90
19342;DHT22;9807;48.258;12.690;2024-01-27T11:09:15;4.60;99.90
19342;DHT22;9807;48.258;12.690;2024-01-27T11:11:45;4.70;99.90
19342;DHT22;9807;48.258;12.690;2024-01-27T11:14:11;4.70;99.90
19342;DHT22;9807;48.258;12.690;2024-01-27T11:16:37;4.80;99.90
19342;DHT22;9807;48.258;12.690;2024-01-27T11:19:11;4.70;99.90
19342;DHT22;9807;48.258;12.690;2024-01-27T11:21:39;4.70;99.90
19342;DHT22;9807;48.258;12.690;2024-01-27T11:24:16;4.70;99.90
19342;DHT22;9807;48.258;12.690;2024-01-27T11:26:41;4.80;99.90
19342;DHT22;9807;48.258;12.690;2024-01-27T11:29:10;4.90;99.90
19342;DHT22;9807;48.258;12.690;2024-01-27T11:31:44;5.00;99.90
19342;DHT22;9807;48.258;12.690;2024-01-27T11:34:13;4.90;99.90
19342;DHT22;9807;48.258;12.690;2024-01-27T11:36:43;5.00;99.90
19342;DHT22;9807;48.258;12.690;2024-01-27T11:39:30;5.00;99.90
19342;DHT22;9807;48.258;12.690;2024-01-27T11:42:05;5.10;99.90
19342;DHT22;9807;48.258;12.690;2024-01-27T11:44:34;5.10;99.90
19342;DHT22;9807;48.258;12.690;2024-01-27T11:47:00;5.20;99.90
19342;DHT22;9807;48.258;12.690;2024-01-27T11:49:27;5.30;99.90
19342;DHT22;9807;48.258;12.690;2024-01-27T11:51:52;5.40;99.90
19342;DHT22;9807;48.258;12.690;2024-01-27T11:54:18;5.50;99.90
19342;DHT22;9807;48.258;12.690;2024-01-27T11:56:44;5.50;99.90
19342;DHT22;9807;48.258;12.690;2024-01-27T11:59:13;5.40;99.90
19342;DHT22;9807;48.258;12.690;2024-01-27T12:01:40;5.50;99.90
19342;DHT22;9807;48.258;12.690;2024-01-27T12:04:06;5.50;99.90
19342;DHT22;9807;48.258;12.690;2024-01-27T12:06:31;5.40;99.90
19342;DHT22;9807;48.258;12.690;2024-01-27T12:08:57;5.40;99.90
19342;DHT22;9807;48.258;12.690;2024-01-27T12:11:26;5.40;99.90
19342;DHT22;9807;48.258;12.690;2024-01-27T12:13:52;5.50;99.90
19342;DHT22;9807;48.258;12.690;2024-01-27T12:16:18;5.50;99.90
19342;DHT22;9807;48.258;12.690;2024-01-27T12:18:45;5.50;99.90
19342;DHT22;9807;48.258;12.690;2024-01-27T12:21:10;5.50;99.90
19342;DHT22;9807;48.258;12.690;2024-01-27T12:23:36;5.60;99.90
19342;DHT22;9807;48.258;12.690;2024-01-27T12:26:14;5.60;99.90
19342;DHT22;9807;48.258;12.690;2024-01-27T12:28:40;5.70;99.90
19342;DHT22;9807;48.258;12.690;2024-01-27T12:31:06;5.70;99.90
19342;DHT22;9807;48.258;12.690;2024-01-27T12:33:31;5.80;99.90
19342;DHT22;9807;48.258;12.690;2024-01-27T12:35:57;5.80;99.90
19342;DHT22;9807;48.258;12.690;2024-01-27T12:38:22;5.90;99.90
19342;DHT22;9807;48.258;12.690;2024-01-27T12:40:48;5.70;99.90
19342;DHT22;9807;48.258;12.690;2024-01-27T12:43:14;5.70;99.90
19342;DHT22;9807;48.258;12.690;2024-01-27T12:45:41;5.70;99.90
19342;DHT22;9807;48.258;12.690;2024-01-27T12:48:07;5.80;99.90
19342;DHT22;9807;48.258;12.690;2024-01-27T12:50:32;5.80;99.90
19342;DHT22;9807;48.258;12.690;2024-01-27T12:52:59;5.90;99.90
19342;DHT22;9807;48.258;12.690;2024-01-27T12:55:25;6.00;99.90
19342;DHT22;9807;48.258;12.690;2024-01-27T12:57:50;6.20;99.90
19342;DHT22;9807;48.258;12.690;2024-01-27T13:00:16;6.20;99.90
19342;DHT22;9807;48.258;12.690;2024-01-27T13:02:42;6.20;99.90
19342;DHT22;9807;48.258;12.690;2024-01-27T13:05:08;6.20;99.90
19342;DHT22;9807;48.258;12.690;2024-01-27T13:07:35;6.20;99.90
19342;DHT22;9807;48.258;12.690;2024-01-27T13:10:00;6.10;99.90
19342;DHT22;9807;48.258;12.690;2024-01-27T13:12:26;6.00;99.90
19342;DHT22;9807;48.258;12.690;2024-01-27T13:14:52;5.90;99.90
19342;DHT22;9807;48.258;12.690;2024-01-27T13:17:20;5.90;99.90
19342;DHT22;9807;48.258;12.690;2024-01-27T13:19:46;5.90;99.90
19342;DHT22;9807;48.258;12.690;2024-01-27T13:22:12;5.90;99.90
19342;DHT22;9807;48.258;12.690;2024-01-27T13:24:37;5.90;99.90
19342;DHT22;9807;48.258;12.690;2024-01-27T13:27:04;5.90;99.90
19342;DHT22;9807;48.258;12.690;2024-01-27T13:29:30;5.90;99.90
19342;DHT22;9807;48.258;12.690;2024-01-27T13:32:00;5.90;99.90
19342;DHT22;9807;48.258;12.690;2024-01-27T13:34:27;6.00;99.90
19342;DHT22;9807;48.258;12.690;2024-01-27T13:36:56;6.10;99.90
19342;DHT22;9807;48.258;12.690;2024-01-27T13:39:22;6.20;99.90
19342;DHT22;9807;48.258;12.690;2024-01-27T13:41:48;6.30;99.90
19342;DHT22;9807;48.258;12.690;2024-01-27T13:44:13;6.40;99.90
19342;DHT22;9807;48.258;12.690;2024-01-27T13:46:39;6.20;99.90
19342;DHT22;9807;48.258;12.690;2024-01-27T13:49:05;6.20;99.90
19342;DHT22;9807;48.258;12.690;2024-01-27T13:51:30;6.10;99.90
19342;DHT22;9807;48.258;12.690;2024-01-27T13:53:56;6.10;99.90
19342;DHT22;9807;48.258;12.690;2024-01-27T13:56:22;6.20;99.90
19342;DHT22;9807;48.258;12.690;2024-01-27T13:58:47;6.30;99.90
19342;DHT22;9807;48.258;12.690;2024-01-27T14:01:13;6.30;99.90
19342;DHT22;9807;48.258;12.690;2024-01-27T14:03:39;6.40;99.90
19342;DHT22;9807;48.258;12.690;2024-01-27T14:06:05;6.30;99.90
19342;DHT22;9807;48.258;12.690;2024-01-27T14:08:31;6.40;99.90
19342;DHT22;9807;48.258;12.690;2024-01-27T14:10:57;6.40;99.90
19342;DHT22;9807;48.258;12.690;2024-01-27T14:13:22;6.40;99.90
19342;DHT22;9807;48.258;12.690;2024-01-27T14:15:48;6.40;99.90
19342;DHT22;9807;48.258;12.690;2024-01-27T14:18:14;6.40;99.90
19342;DHT22;9807;48.258;12.690;2024-01-27T14:20:46;6.50;99.90
19342;DHT22;9807;48.258;12.690;2024-01-27T14:23:14;6.70;99.90
19342;DHT22;9807;48.258;12.690;2024-01-27T14:25:39;6.50;99.90
19342;DHT22;9807;48.258;12.690;2024-01-27T14:28:05;6.70;99.90
19342;DHT22;9807;48.258;12.690;2024-01-27T14:30:33;6.80;99.90
19342;DHT22;9807;48.258;12.690;2024-01-27T14:33:02;6.80;99.90
19342;DHT22;9807;48.258;12.690;2024-01-27T14:35:28;6.70;99.90
19342;DHT22;9807;48.258;12.690;2024-01-27T14:37:53;6.60;99.90
19342;DHT22;9807;48.258;12.690;2024-01-27T14:40:21;6.50;99.90
19342;DHT22;9807;48.258;12.690;2024-01-27T14:42:47;6.50;99.90
19342;DHT22;9807;48.258;12.690;2024-01-27T14:45:15;6.50;99.90
19342;DHT22;9807;48.258;12.690;2024-01-27T14:47:41;6.50;99.90
19342;DHT22;9807;48.258;12.690;2024-01-27T14:50:06;6.40;99.90
19342;DHT22;9807;48.258;12.690;2024-01-27T14:52:35;6.30;99.90
19342;DHT22;9807;48.258;12.690;2024-01-27T14:55:01;6.30;99.90
19342;DHT22;9807;48.258;12.690;2024-01-27T14:57:27;6.20;99.90
19342;DHT22;9807;48.258;12.690;2024-01-27T14:59:52;6.20;99.90
19342;DHT22;9807;48.258;12.690;2024-01-27T15:02:18;6.20;99.90
19342;DHT22;9807;48.258;12.690;2024-01-27T15:04:44;6.20;99.90
19342;DHT22;9807;48.258;12.690;2024-01-27T15:07:11;6.20;99.90
19342;DHT22;9807;48.258;12.690;2024-01-27T15:09:41;6.20;99.90
19342;DHT22;9807;48.258;12.690;2024-01-27T15:12:07;6.20;99.90
19342;DHT22;9807;48.258;12.690;2024-01-27T15:14:33;6.20;99.90
19342;DHT22;9807;48.258;12.690;2024-01-27T15:17:01;6.20;99.90
19342;DHT22;9807;48.258;12.690;2024-01-27T15:19:27;6.20;99.90
19342;DHT22;9807;48.258;12.690;2024-01-27T15:21:53;6.20;99.90
19342;DHT22;9807;48.258;12.690;2024-01-27T15:24:18;6.10;99.90
19342;DHT22;9807;48.258;12.690;2024-01-27T15:26:44;6.10;99.90
19342;DHT22;9807;48.258;12.690;2024-01-27T15:29:10;6.00;99.90
19342;DHT22;9807;48.258;12.690;2024-01-27T15:31:37;6.00;99.90
19342;DHT22;9807;48.258;12.690;2024-01-27T15:34:03;6.00;99.90
19342;DHT22;9807;48.258;12.690;2024-01-27T15:36:30;6.10;99.90
19342;DHT22;9807;48.258;12.690;2024-01-27T15:38:56;6.40;99.90
19342;DHT22;9807;48.258;12.690;2024-01-27T15:41:22;6.70;99.90
19342;DHT22;9807;48.258;12.690;2024-01-27T15:43:48;7.00;99.90